createdAt,value
2019-06-20T00:00:51.580Z,18.30
2019-06-20T00:03:20.822Z,18.20
2019-06-20T00:05:49.529Z,18.20
2019-06-20T00:08:18.081Z,18.20
2019-06-20T00:10:46.744Z,18.20
2019-06-20T00:13:15.353Z,18.20
2019-06-20T00:15:44.146Z,18.10
2019-06-20T00:18:12.685Z,18.10
2019-06-20T00:20:41.283Z,18.00
2019-06-20T00:23:09.914Z,18.10
2019-06-20T00:25:38.372Z,18.10
2019-06-20T00:28:06.930Z,18.00
2019-06-20T00:30:35.445Z,18.10
2019-06-20T00:33:04.014Z,18.00
2019-06-20T00:35:32.515Z,18.00
2019-06-20T00:38:01.074Z,17.90
2019-06-20T00:40:29.680Z,17.90
2019-06-20T00:42:58.524Z,17.90
2019-06-20T00:45:27.277Z,17.90
2019-06-20T00:47:55.788Z,17.80
2019-06-20T00:50:24.238Z,17.80
2019-06-20T00:52:52.894Z,17.80
2019-06-20T00:55:21.576Z,18.00
2019-06-20T00:57:50.133Z,17.90
2019-06-20T01:00:18.788Z,17.80
2019-06-20T01:02:47.277Z,17.90
2019-06-20T01:05:16.337Z,17.90
2019-06-20T01:07:44.994Z,17.90
2019-06-20T01:10:14.602Z,17.90
2019-06-20T01:12:43.129Z,17.90
2019-06-20T01:15:11.960Z,17.90
2019-06-20T01:17:40.566Z,17.90
2019-06-20T01:20:11.558Z,17.90
2019-06-20T01:22:40.204Z,17.90
2019-06-20T01:25:09.156Z,17.90
2019-06-20T01:27:38.160Z,17.90
2019-06-20T01:30:10.131Z,17.90
2019-06-20T01:32:38.761Z,17.90
2019-06-20T01:35:09.386Z,18.00
2019-06-20T01:37:38.491Z,17.90
2019-06-20T01:40:07.490Z,17.90
2019-06-20T01:42:36.096Z,17.90
2019-06-20T01:45:06.592Z,17.90
2019-06-20T01:47:35.329Z,17.90
2019-06-20T01:50:05.592Z,18.00
2019-06-20T01:52:34.281Z,17.90
2019-06-20T01:57:38.660Z,17.90
2019-06-20T02:00:09.256Z,17.80
2019-06-20T02:02:38.256Z,17.90
2019-06-20T02:05:08.183Z,17.80
2019-06-20T02:07:36.830Z,17.80
2019-06-20T02:10:06.903Z,17.80
2019-06-20T02:12:35.363Z,17.80
2019-06-20T02:15:05.971Z,17.80
2019-06-20T02:17:34.575Z,17.80
2019-06-20T02:20:03.316Z,17.90
2019-06-20T02:22:31.836Z,17.90
2019-06-20T02:25:00.306Z,17.70
2019-06-20T02:27:28.868Z,17.80
2019-06-20T02:29:57.530Z,17.70
2019-06-20T02:32:26.137Z,17.70
2019-06-20T02:34:54.606Z,17.70
2019-06-20T02:37:23.267Z,17.90
2019-06-20T02:39:51.802Z,17.80
2019-06-20T02:42:39.748Z,17.80
2019-06-20T02:45:08.567Z,17.80
2019-06-20T02:47:37.112Z,17.70
2019-06-20T02:50:06.677Z,17.70
2019-06-20T02:52:39.564Z,17.70
2019-06-20T02:55:08.339Z,17.70
2019-06-20T02:57:36.854Z,17.70
2019-06-20T03:00:09.411Z,17.60
2019-06-20T03:02:43.854Z,17.60
2019-06-20T03:05:12.832Z,17.60
2019-06-20T03:07:42.176Z,17.70
2019-06-20T03:10:10.946Z,17.60
2019-06-20T03:12:39.517Z,17.60
2019-06-20T03:15:08.238Z,17.60
2019-06-20T03:17:36.739Z,17.50
2019-06-20T03:20:09.899Z,17.50
2019-06-20T03:22:38.535Z,17.60
2019-06-20T03:25:07.114Z,17.60
2019-06-20T03:27:35.704Z,17.60
2019-06-20T03:30:06.513Z,17.60
2019-06-20T03:32:34.978Z,17.50
2019-06-20T03:35:04.847Z,17.50
2019-06-20T03:37:33.400Z,17.50
2019-06-20T03:40:01.906Z,17.40
2019-06-20T03:42:30.659Z,17.40
2019-06-20T03:45:02.414Z,17.50
2019-06-20T03:47:29.467Z,17.50
2019-06-20T03:49:58.016Z,17.50
2019-06-20T03:52:26.833Z,17.60
2019-06-20T03:54:55.449Z,17.50
2019-06-20T03:57:23.943Z,17.50
2019-06-20T03:59:52.413Z,17.50
2019-06-20T04:02:20.960Z,17.60
2019-06-20T04:04:49.583Z,17.70
2019-06-20T04:07:18.090Z,17.50
2019-06-20T04:09:46.615Z,17.50
2019-06-20T04:12:15.083Z,17.40
2019-06-20T04:14:48.855Z,17.40
2019-06-20T04:17:15.956Z,17.40
2019-06-20T04:19:44.482Z,17.50
2019-06-20T04:22:13.023Z,17.40
2019-06-20T04:24:41.624Z,17.40
2019-06-20T04:27:10.092Z,17.40
2019-06-20T04:29:38.669Z,17.40
2019-06-20T04:32:07.151Z,17.40
2019-06-20T04:34:35.624Z,17.50
2019-06-20T04:37:04.161Z,17.40
2019-06-20T04:39:32.623Z,17.40
2019-06-20T04:42:02.813Z,17.40
2019-06-20T04:44:31.282Z,17.40
2019-06-20T04:47:10.582Z,17.50
2019-06-20T04:49:39.170Z,17.40
2019-06-20T04:52:07.817Z,17.50
2019-06-20T04:54:36.416Z,17.60
2019-06-20T04:57:05.070Z,17.50
2019-06-20T04:59:33.649Z,17.50
2019-06-20T05:02:02.256Z,17.40
2019-06-20T05:04:30.788Z,17.50
2019-06-20T05:07:08.298Z,17.60
2019-06-20T05:09:36.832Z,17.50
2019-06-20T05:12:05.342Z,17.60
2019-06-20T05:14:34.010Z,17.70
2019-06-20T05:17:02.562Z,17.70
2019-06-20T05:19:31.043Z,17.70
2019-06-20T05:22:00.050Z,17.70
2019-06-20T05:24:28.763Z,17.70
2019-06-20T05:26:57.223Z,17.70
2019-06-20T05:29:25.708Z,17.70
2019-06-20T05:31:54.394Z,17.90
2019-06-20T05:34:22.943Z,18.00
2019-06-20T05:36:51.560Z,18.00
2019-06-20T05:39:20.271Z,18.10
2019-06-20T05:41:48.721Z,18.20
2019-06-20T05:44:17.733Z,18.20
2019-06-20T05:46:47.162Z,18.30
2019-06-20T05:49:16.042Z,18.20
2019-06-20T05:51:44.581Z,18.20
2019-06-20T05:54:13.157Z,18.20
2019-06-20T05:56:41.793Z,18.20
2019-06-20T05:59:10.312Z,18.30
2019-06-20T06:01:38.841Z,18.20
2019-06-20T06:04:07.443Z,18.30
2019-06-20T06:06:36.975Z,18.00
2019-06-20T06:09:07.475Z,18.00
2019-06-20T06:11:36.016Z,17.80
2019-06-20T06:14:04.836Z,17.90
2019-06-20T06:16:33.572Z,17.90
2019-06-20T06:19:02.258Z,17.90
2019-06-20T06:21:30.931Z,17.90
2019-06-20T06:23:59.720Z,17.90
2019-06-20T06:26:28.518Z,18.00
2019-06-20T06:28:57.407Z,18.00
2019-06-20T06:31:25.944Z,18.00
2019-06-20T06:33:54.444Z,17.90
2019-06-20T06:36:22.916Z,18.00
2019-06-20T06:38:51.387Z,17.90
2019-06-20T06:41:19.853Z,18.00
2019-06-20T06:43:48.348Z,17.80
2019-06-20T06:46:16.897Z,17.80
2019-06-20T06:48:45.449Z,17.90
2019-06-20T06:51:14.111Z,17.90
2019-06-20T06:53:42.641Z,18.00
2019-06-20T06:56:11.809Z,18.10
2019-06-20T06:58:40.293Z,18.20
2019-06-20T07:01:10.302Z,18.30
2019-06-20T07:03:39.077Z,18.40
2019-06-20T07:06:07.645Z,18.50
2019-06-20T07:08:36.319Z,18.50
2019-06-20T07:11:05.116Z,18.60
2019-06-20T07:13:33.629Z,18.70
2019-06-20T07:16:02.136Z,18.80
2019-06-20T07:18:31.198Z,18.80
2019-06-20T07:20:59.745Z,18.60
2019-06-20T07:23:28.273Z,18.60
2019-06-20T07:25:56.890Z,18.60
2019-06-20T07:28:25.465Z,18.60
2019-06-20T07:30:54.078Z,18.70
2019-06-20T07:33:22.669Z,18.90
2019-06-20T07:35:51.175Z,19.00
2019-06-20T07:38:19.716Z,19.20
2019-06-20T07:40:48.289Z,19.30
2019-06-20T07:43:16.770Z,19.50
2019-06-20T07:46:01.517Z,19.60
2019-06-20T07:48:15.551Z,19.40
2019-06-20T07:50:44.327Z,19.30
2019-06-20T07:53:12.861Z,19.40
2019-06-20T07:55:41.505Z,19.50
2019-06-20T07:58:10.685Z,19.50
2019-06-20T08:00:39.443Z,19.30
2019-06-20T08:03:08.096Z,19.20
2019-06-20T08:05:36.763Z,19.20
2019-06-20T08:08:05.373Z,19.50
2019-06-20T08:10:34.022Z,19.50
2019-06-20T08:13:02.689Z,19.60
2019-06-20T08:15:31.325Z,19.70
2019-06-20T08:18:00.013Z,19.60
2019-06-20T08:20:28.819Z,19.40
2019-06-20T08:22:57.525Z,19.60
2019-06-20T08:25:26.301Z,19.60
2019-06-20T08:28:14.253Z,19.60
2019-06-20T08:30:42.812Z,19.60
2019-06-20T08:33:12.312Z,19.60
2019-06-20T08:35:41.888Z,19.50
2019-06-20T08:38:10.578Z,19.50
2019-06-20T08:40:42.170Z,19.50
2019-06-20T08:43:10.886Z,19.60
2019-06-20T08:45:41.450Z,19.50
2019-06-20T08:48:11.379Z,19.20
2019-06-20T08:50:41.199Z,19.10
2019-06-20T08:53:09.757Z,19.10
2019-06-20T08:55:38.400Z,19.00
2019-06-20T08:58:07.077Z,19.10
2019-06-20T09:00:37.549Z,19.30
2019-06-20T09:03:07.323Z,19.40
2019-06-20T09:05:36.251Z,19.60
2019-06-20T09:08:06.875Z,19.60
2019-06-20T09:10:41.960Z,19.50
2019-06-20T09:13:12.530Z,19.80
2019-06-20T09:15:42.695Z,19.90
2019-06-20T09:18:11.568Z,20.20
2019-06-20T09:20:40.563Z,20.30
2019-06-20T09:23:09.209Z,19.90
2019-06-20T09:25:37.931Z,19.70
2019-06-20T09:28:07.018Z,19.80
2019-06-20T09:30:36.408Z,20.00
2019-06-20T09:33:05.583Z,20.00
2019-06-20T09:35:34.189Z,20.30
2019-06-20T09:38:03.449Z,20.20
2019-06-20T09:40:33.091Z,20.40
2019-06-20T09:43:03.096Z,20.50
2019-06-20T09:45:31.768Z,20.40
2019-06-20T09:48:00.306Z,20.30
2019-06-20T09:50:29.082Z,20.10
2019-06-20T09:52:58.413Z,20.20
2019-06-20T09:55:27.154Z,20.40
2019-06-20T09:57:55.991Z,20.20
2019-06-20T10:00:26.886Z,20.20
2019-06-20T10:02:57.391Z,20.20
2019-06-20T10:05:26.060Z,20.30
2019-06-20T10:07:56.647Z,20.30
2019-06-20T10:10:29.597Z,20.40
2019-06-20T10:12:58.701Z,20.50
2019-06-20T10:15:29.504Z,20.70
2019-06-20T10:17:58.330Z,20.60
2019-06-20T10:20:33.010Z,20.70
2019-06-20T10:23:01.651Z,21.00
2019-06-20T10:25:30.265Z,21.10
2019-06-20T10:27:58.914Z,21.40
2019-06-20T10:30:28.187Z,21.50
2019-06-20T10:32:57.777Z,21.50
2019-06-20T10:35:26.728Z,21.50
2019-06-20T10:37:56.981Z,21.90
2019-06-20T10:40:26.146Z,21.80
2019-06-20T10:42:54.735Z,21.70
2019-06-20T10:47:59.889Z,21.70
2019-06-20T10:50:29.589Z,21.60
2019-06-20T10:52:58.165Z,21.80
2019-06-20T10:55:26.830Z,21.80
2019-06-20T10:57:55.439Z,22.10
2019-06-20T11:00:31.211Z,21.90
2019-06-20T11:02:56.296Z,21.90
2019-06-20T11:05:24.967Z,21.70
2019-06-20T11:07:53.787Z,21.70
2019-06-20T11:10:24.028Z,21.90
2019-06-20T11:12:55.968Z,21.70
2019-06-20T11:15:23.304Z,21.60
2019-06-20T11:17:56.866Z,21.40
2019-06-20T11:20:27.309Z,21.40
2019-06-20T11:22:55.777Z,21.40
2019-06-20T11:25:24.405Z,21.50
2019-06-20T11:27:52.917Z,21.40
2019-06-20T11:30:26.680Z,21.40
2019-06-20T11:32:55.677Z,21.50
2019-06-20T11:35:24.598Z,21.40
2019-06-20T11:37:53.139Z,21.20
2019-06-20T11:40:23.157Z,21.10
2019-06-20T11:42:51.722Z,21.10
2019-06-20T11:45:21.024Z,21.10
2019-06-20T11:47:49.727Z,21.20
2019-06-20T11:50:19.054Z,21.30
2019-06-20T11:52:47.634Z,21.20
2019-06-20T11:55:17.075Z,21.30
2019-06-20T11:57:45.620Z,21.40
2019-06-20T12:00:15.813Z,21.40
2019-06-20T12:02:48.254Z,21.50
2019-06-20T12:05:17.480Z,22.00
2019-06-20T12:08:07.043Z,22.00
2019-06-20T12:10:35.634Z,22.20
2019-06-20T12:13:04.313Z,22.00
2019-06-20T12:15:32.935Z,21.80
2019-06-20T12:18:01.407Z,21.60
2019-06-20T12:20:29.936Z,21.50
2019-06-20T12:22:58.485Z,21.40
2019-06-20T12:25:27.028Z,21.30
2019-06-20T12:27:55.693Z,21.40
2019-06-20T12:30:24.422Z,21.10
2019-06-20T12:32:53.107Z,21.00
2019-06-20T12:35:21.703Z,21.00
2019-06-20T12:38:00.080Z,20.90
2019-06-20T12:40:28.729Z,20.90
2019-06-20T12:42:57.598Z,21.00
2019-06-20T12:45:28.286Z,21.10
2019-06-20T12:47:56.809Z,21.20
2019-06-20T12:50:25.614Z,21.10
2019-06-20T12:52:54.057Z,21.10
2019-06-20T12:55:24.215Z,21.20
2019-06-20T12:57:52.826Z,21.20
2019-06-20T13:00:23.049Z,21.50
2019-06-20T13:02:51.728Z,21.50
2019-06-20T13:05:20.955Z,21.40
2019-06-20T13:07:53.285Z,21.60
2019-06-20T13:10:22.181Z,21.50
2019-06-20T13:12:51.592Z,21.40
2019-06-20T13:15:20.700Z,21.60
2019-06-20T13:17:49.403Z,21.30
2019-06-20T13:20:18.738Z,21.10
2019-06-20T13:22:53.403Z,21.20
2019-06-20T13:25:21.973Z,21.20
2019-06-20T13:27:50.798Z,21.00
2019-06-20T13:30:21.105Z,20.90
2019-06-20T13:32:49.877Z,20.80
2019-06-20T13:35:24.208Z,20.90
2019-06-20T13:37:52.805Z,20.80
2019-06-20T13:40:21.358Z,20.80
2019-06-20T13:42:54.756Z,20.80
2019-06-20T13:45:26.970Z,20.60
2019-06-20T13:47:55.864Z,20.60
2019-06-20T13:50:25.956Z,20.60
2019-06-20T13:52:54.915Z,20.60
2019-06-20T13:55:23.689Z,20.50
2019-06-20T13:57:52.201Z,20.30
2019-06-20T14:00:23.731Z,20.20
2019-06-20T14:02:52.485Z,20.00
2019-06-20T14:05:25.949Z,19.80
2019-06-20T14:07:57.623Z,19.80
2019-06-20T14:13:25.081Z,19.80
2019-06-20T14:15:55.617Z,19.90
2019-06-20T14:18:46.540Z,19.70
2019-06-20T14:21:20.663Z,19.60
2019-06-20T14:23:54.186Z,19.70
2019-06-20T14:26:29.171Z,19.80
2019-06-20T14:29:12.349Z,19.70
2019-06-20T14:35:03.193Z,19.60
2019-06-20T14:37:36.241Z,19.60
2019-06-20T14:40:08.009Z,19.50
2019-06-20T14:42:36.875Z,19.70
2019-06-20T14:45:08.330Z,19.60
2019-06-20T14:47:37.490Z,19.70
2019-06-20T14:50:10.067Z,19.60
2019-06-20T14:52:38.840Z,19.60
2019-06-20T14:55:07.986Z,19.50
2019-06-20T14:57:36.763Z,19.60
2019-06-20T15:00:10.570Z,19.70
2019-06-20T15:02:39.310Z,19.70
2019-06-20T15:05:17.165Z,19.80
2019-06-20T15:07:47.400Z,19.80
2019-06-20T15:10:17.403Z,19.60
2019-06-20T15:12:47.854Z,19.70
2019-06-20T15:15:22.317Z,19.60
2019-06-20T15:17:53.581Z,19.60
2019-06-20T15:20:21.996Z,19.60
2019-06-20T15:22:51.241Z,19.70
2019-06-20T15:25:20.882Z,19.60
2019-06-20T15:27:51.374Z,19.70
2019-06-20T15:30:20.252Z,19.70
2019-06-20T15:32:59.259Z,19.70
2019-06-20T15:35:31.342Z,19.70
2019-06-20T15:38:01.744Z,19.80
2019-06-20T15:40:41.019Z,19.80
2019-06-20T15:43:32.281Z,20.00
2019-06-20T15:46:00.971Z,20.10
2019-06-20T15:48:29.630Z,20.30
2019-06-20T15:50:58.388Z,20.30
2019-06-20T15:53:27.055Z,20.40
2019-06-20T15:55:55.755Z,20.50
2019-06-20T15:58:24.359Z,20.60
2019-06-20T16:00:54.076Z,20.70
2019-06-20T16:03:23.345Z,20.70
2019-06-20T16:05:51.995Z,20.80
2019-06-20T16:08:20.603Z,20.80
2019-06-20T16:10:49.252Z,21.00
2019-06-20T16:13:17.996Z,21.20
2019-06-20T16:15:46.923Z,21.30
2019-06-20T16:18:15.497Z,21.50
2019-06-20T16:20:44.268Z,21.30
2019-06-20T16:23:13.471Z,21.30
2019-06-20T16:25:42.331Z,21.60
2019-06-20T16:28:18.084Z,21.50
2019-06-20T16:30:46.643Z,21.60
2019-06-20T16:33:24.656Z,21.80
2019-06-20T16:35:45.631Z,21.80
2019-06-20T16:38:14.715Z,21.50
2019-06-20T16:40:46.103Z,21.30
2019-06-20T16:43:15.195Z,21.30
2019-06-20T16:45:44.497Z,21.30
2019-06-20T16:48:13.162Z,21.00
2019-06-20T16:50:41.996Z,20.40
2019-06-20T16:53:10.665Z,19.70
2019-06-20T16:55:39.199Z,19.40
2019-06-20T16:58:10.719Z,19.00
2019-06-20T17:00:43.686Z,18.50
2019-06-20T17:03:12.418Z,18.30
2019-06-20T17:05:41.307Z,18.00
2019-06-20T17:08:09.913Z,18.10
2019-06-20T17:10:38.570Z,18.00
2019-06-20T17:13:07.267Z,17.80
2019-06-20T17:15:36.019Z,17.50
2019-06-20T17:18:05.035Z,17.30
2019-06-20T17:20:33.822Z,17.70
2019-06-20T17:23:03.374Z,17.60
2019-06-20T17:25:32.109Z,17.70
2019-06-20T17:28:00.826Z,17.70
2019-06-20T17:30:29.382Z,17.70
2019-06-20T17:32:58.504Z,17.70
2019-06-20T17:35:27.326Z,17.70
2019-06-20T17:37:56.012Z,18.00
2019-06-20T17:40:25.550Z,18.50
2019-06-20T17:42:54.336Z,18.30
2019-06-20T17:45:24.476Z,18.50
2019-06-20T17:47:53.129Z,18.60
2019-06-20T17:50:25.705Z,18.50
2019-06-20T17:52:52.923Z,18.50
2019-06-20T17:55:21.971Z,18.60
2019-06-20T17:57:50.584Z,18.40
2019-06-20T18:00:21.061Z,18.50
2019-06-20T18:02:49.614Z,18.60
2019-06-20T18:05:18.404Z,18.60
2019-06-20T18:07:47.102Z,18.50
2019-06-20T18:10:17.261Z,18.40
2019-06-20T18:12:45.956Z,18.30
2019-06-20T18:15:15.376Z,18.30
2019-06-20T18:17:44.317Z,18.20
2019-06-20T18:20:13.524Z,18.20
2019-06-20T18:22:42.225Z,18.00
2019-06-20T18:25:12.645Z,18.00
2019-06-20T18:27:41.387Z,18.00
2019-06-20T18:30:11.958Z,17.90
2019-06-20T18:32:40.626Z,17.90
2019-06-20T18:35:09.542Z,17.90
2019-06-20T18:37:38.230Z,18.00
2019-06-20T18:40:08.657Z,17.70
2019-06-20T18:42:37.287Z,17.80
2019-06-20T18:47:42.583Z,17.80
2019-06-20T18:50:11.450Z,17.80
2019-06-20T18:52:51.585Z,17.70
2019-06-20T18:55:11.417Z,17.70
2019-06-20T18:57:40.165Z,17.70
2019-06-20T19:00:11.056Z,17.60
2019-06-20T19:02:42.994Z,17.60
2019-06-20T19:05:12.377Z,17.60
2019-06-20T19:07:41.050Z,17.50
2019-06-20T19:10:11.356Z,17.50
2019-06-20T19:12:39.985Z,17.50
2019-06-20T19:15:09.874Z,17.50
2019-06-20T19:17:39.145Z,17.40
2019-06-20T19:20:08.769Z,17.50
2019-06-20T19:22:37.512Z,17.60
2019-06-20T19:25:08.347Z,17.50
2019-06-20T19:27:46.329Z,17.70
2019-06-20T19:30:10.875Z,17.60
2019-06-20T19:32:39.516Z,17.70
2019-06-20T19:35:10.446Z,17.70
2019-06-20T19:37:39.094Z,17.70
2019-06-20T19:40:08.897Z,17.80
2019-06-20T19:42:37.790Z,17.70
2019-06-20T19:45:12.540Z,17.70
2019-06-20T19:47:41.679Z,17.70
2019-06-20T19:50:12.070Z,17.60
2019-06-20T19:52:41.580Z,17.70
2019-06-20T19:55:10.899Z,17.70
2019-06-20T19:57:40.025Z,17.70
2019-06-20T20:00:09.237Z,17.70
2019-06-20T20:02:38.025Z,17.70
2019-06-20T20:05:18.540Z,17.60
2019-06-20T20:07:38.470Z,17.60
2019-06-20T20:12:42.193Z,17.50
2019-06-20T20:15:11.496Z,17.60
2019-06-20T20:17:40.150Z,17.50
2019-06-20T20:20:09.158Z,17.50
2019-06-20T20:22:37.723Z,17.40
2019-06-20T20:25:07.988Z,17.30
2019-06-20T20:27:36.675Z,17.30
2019-06-20T20:30:08.189Z,17.30
2019-06-20T20:32:37.959Z,17.20
2019-06-20T20:35:06.743Z,17.20
2019-06-20T20:37:35.995Z,17.10
2019-06-20T20:40:08.995Z,17.20
2019-06-20T20:42:37.737Z,17.10
2019-06-20T20:45:09.917Z,17.20
2019-06-20T20:47:38.649Z,17.10
2019-06-20T20:50:08.701Z,17.10
2019-06-20T20:52:37.527Z,17.00
2019-06-20T20:55:08.911Z,17.00
2019-06-20T20:57:38.365Z,16.90
2019-06-20T21:00:24.045Z,16.90
2019-06-20T21:02:53.337Z,17.00
2019-06-20T21:05:50.989Z,16.90
2019-06-20T21:08:11.687Z,16.90
2019-06-20T21:10:40.408Z,16.90
2019-06-20T21:13:09.092Z,16.80
2019-06-20T21:15:37.736Z,16.80
2019-06-20T21:18:06.402Z,16.70
2019-06-20T21:20:37.705Z,16.70
2019-06-20T21:23:06.472Z,16.70
2019-06-20T21:25:35.132Z,16.70
2019-06-20T21:28:03.781Z,16.60
2019-06-20T21:30:32.546Z,16.60
2019-06-20T21:33:01.364Z,16.60
2019-06-20T21:35:30.022Z,16.60
2019-06-20T21:37:58.717Z,16.60
2019-06-20T21:40:27.279Z,16.50
2019-06-20T21:42:55.771Z,16.50
2019-06-20T21:45:25.027Z,16.50
2019-06-20T21:47:53.663Z,16.50
2019-06-20T21:50:22.278Z,16.40
2019-06-20T21:52:50.973Z,16.40
2019-06-20T21:55:19.611Z,16.40
2019-06-20T21:57:48.270Z,16.40
2019-06-20T22:00:24.680Z,16.40
2019-06-20T22:02:54.254Z,16.40
2019-06-20T22:05:22.903Z,16.40
2019-06-20T22:07:51.600Z,16.50
2019-06-20T22:10:20.571Z,16.50
2019-06-20T22:12:49.191Z,16.40
2019-06-20T22:15:18.100Z,16.40
2019-06-20T22:17:46.744Z,16.40
2019-06-20T22:20:17.349Z,16.50
2019-06-20T22:22:46.090Z,16.40
2019-06-20T22:25:15.160Z,16.40
2019-06-20T22:27:43.864Z,16.40
2019-06-20T22:30:13.530Z,16.40
2019-06-20T22:32:42.237Z,16.40
2019-06-20T22:35:11.247Z,16.40
2019-06-20T22:37:39.931Z,16.30
2019-06-20T22:40:09.723Z,16.20
2019-06-20T22:42:38.360Z,16.20
2019-06-20T22:45:08.951Z,16.10
2019-06-20T22:47:37.788Z,16.10
2019-06-20T22:50:07.650Z,16.00
2019-06-20T22:52:36.194Z,16.00
2019-06-20T22:55:05.828Z,16.00
2019-06-20T22:57:34.300Z,15.90
2019-06-20T23:00:04.709Z,15.90
2019-06-20T23:02:40.424Z,15.90
2019-06-20T23:05:09.262Z,15.90
2019-06-20T23:07:37.815Z,15.90
2019-06-20T23:10:11.063Z,16.10
2019-06-20T23:12:38.622Z,16.10
2019-06-20T23:15:08.552Z,16.10
2019-06-20T23:17:37.172Z,16.00
2019-06-20T23:20:07.368Z,16.00
2019-06-20T23:22:36.040Z,16.00
2019-06-20T23:25:08.246Z,15.90
2019-06-20T23:27:36.883Z,15.90
2019-06-20T23:30:09.188Z,15.90
2019-06-20T23:32:37.744Z,15.80
2019-06-20T23:35:08.014Z,15.80
2019-06-20T23:37:36.661Z,15.70
2019-06-20T23:40:07.706Z,15.70
2019-06-20T23:42:36.375Z,15.70
2019-06-20T23:45:09.583Z,15.70
2019-06-20T23:47:38.255Z,15.70
2019-06-20T23:50:09.618Z,15.60
2019-06-20T23:52:39.883Z,15.70
2019-06-20T23:55:08.534Z,15.60
2019-06-20T23:57:37.164Z,15.50
